Emmonak, Alaska
Current Conditions -  °F | °C
As of 4:56 AM on Wednesday 28 Jan 2015 (Local Time) from PAEM Reporting Station
Clear Clear  
Wind Chill: -21°   Ceiling: Unl
Heat Index: -2°   Visibility: 10mi
Dew Point: -8°   Wind: 13mph
Humidity: 78%   Direction: 10°N
Pressure: 30.29"   Gusts: NA
Location:  62.78°N, 164.53°W
Report Text: PAEM 281356Z AUTO 01011KT 10SM CLR M19/M22 A3029 RMK AO1
Loading
Personal Weather Stations






























Interactive Weather Map New forecast layout! Learn more

10-Day Weather Forecast

Advertisements
Track Severe Weather on mobile